sensor_id;sensor_type;location;lat;lon;timestamp;pressure;altitude;pressure_sealevel;temperature;humidity
72636;BME280;60679;48.888;15.544;2023-03-04T00:01:11;96335.38;;;-1.65;56.13
72636;BME280;60679;48.888;15.544;2023-03-04T00:03:37;96339.16;;;-1.67;56.15
72636;BME280;60679;48.888;15.544;2023-03-04T00:06:02;96331.81;;;-1.73;56.11
72636;BME280;60679;48.888;15.544;2023-03-04T00:08:28;96337.38;;;-1.77;56.35
72636;BME280;60679;48.888;15.544;2023-03-04T00:10:53;96338.91;;;-1.74;56.38
72636;BME280;60679;48.888;15.544;2023-03-04T00:13:18;96339.56;;;-1.72;56.66
72636;BME280;60679;48.888;15.544;2023-03-04T00:15:47;96332.78;;;-1.75;56.50
72636;BME280;60679;48.888;15.544;2023-03-04T00:18:12;96334.19;;;-1.80;56.49
72636;BME280;60679;48.888;15.544;2023-03-04T00:20:38;96335.47;;;-1.84;56.92
72636;BME280;60679;48.888;15.544;2023-03-04T00:23:04;96336.75;;;-1.88;56.64
72636;BME280;60679;48.888;15.544;2023-03-04T00:25:29;96320.88;;;-1.88;56.77
72636;BME280;60679;48.888;15.544;2023-03-04T00:27:54;96327.97;;;-1.89;56.83
72636;BME280;60679;48.888;15.544;2023-03-04T00:30:20;96327.72;;;-1.95;56.97
72636;BME280;60679;48.888;15.544;2023-03-04T00:32:45;96324.53;;;-1.99;57.34
72636;BME280;60679;48.888;15.544;2023-03-04T00:35:11;96329.00;;;-1.99;57.09
72636;BME280;60679;48.888;15.544;2023-03-04T00:37:36;96323.84;;;-2.01;56.94
72636;BME280;60679;48.888;15.544;2023-03-04T00:40:01;96322.47;;;-2.05;57.13
72636;BME280;60679;48.888;15.544;2023-03-04T00:42:27;96325.28;;;-2.06;57.19
72636;BME280;60679;48.888;15.544;2023-03-04T00:44:52;96319.69;;;-2.03;57.46
72636;BME280;60679;48.888;15.544;2023-03-04T00:47:18;96315.75;;;-1.99;57.19
72636;BME280;60679;48.888;15.544;2023-03-04T00:49:43;96306.16;;;-2.00;57.54
72636;BME280;60679;48.888;15.544;2023-03-04T00:52:08;96311.06;;;-2.05;57.73
72636;BME280;60679;48.888;15.544;2023-03-04T00:54:34;96302.19;;;-2.14;57.79
72636;BME280;60679;48.888;15.544;2023-03-04T00:57:00;96308.75;;;-2.18;57.66
72636;BME280;60679;48.888;15.544;2023-03-04T00:59:25;96303.16;;;-2.15;57.95
72636;BME280;60679;48.888;15.544;2023-03-04T01:01:50;96303.41;;;-2.08;57.86
72636;BME280;60679;48.888;15.544;2023-03-04T01:04:16;96295.16;;;-1.96;57.94
72636;BME280;60679;48.888;15.544;2023-03-04T01:06:41;96295.09;;;-1.86;57.85
72636;BME280;60679;48.888;15.544;2023-03-04T01:09:06;96295.91;;;-1.86;58.01
72636;BME280;60679;48.888;15.544;2023-03-04T01:11:32;96285.88;;;-1.82;57.60
72636;BME280;60679;48.888;15.544;2023-03-04T01:13:58;96289.06;;;-1.79;57.84
72636;BME280;60679;48.888;15.544;2023-03-04T01:16:23;96287.28;;;-1.78;57.73
72636;BME280;60679;48.888;15.544;2023-03-04T01:18:48;96277.94;;;-1.82;57.84
72636;BME280;60679;48.888;15.544;2023-03-04T01:21:14;96278.69;;;-1.90;57.98
72636;BME280;60679;48.888;15.544;2023-03-04T01:23:39;96271.19;;;-1.94;58.23
72636;BME280;60679;48.888;15.544;2023-03-04T01:26:04;96275.13;;;-1.98;57.97
72636;BME280;60679;48.888;15.544;2023-03-04T01:28:30;96267.47;;;-2.01;58.01
72636;BME280;60679;48.888;15.544;2023-03-04T01:31:00;96266.63;;;-2.02;58.16
72636;BME280;60679;48.888;15.544;2023-03-04T01:33:25;96271.63;;;-1.99;58.20
72636;BME280;60679;48.888;15.544;2023-03-04T01:35:51;96262.19;;;-2.01;58.40
72636;BME280;60679;48.888;15.544;2023-03-04T01:38:16;96269.00;;;-1.99;58.53
72636;BME280;60679;48.888;15.544;2023-03-04T01:40:42;96268.59;;;-2.04;58.20
72636;BME280;60679;48.888;15.544;2023-03-04T01:43:12;96264.72;;;-2.09;58.39
72636;BME280;60679;48.888;15.544;2023-03-04T01:45:40;96256.69;;;-2.17;58.28
72636;BME280;60679;48.888;15.544;2023-03-04T01:48:08;96257.28;;;-2.23;58.36
72636;BME280;60679;48.888;15.544;2023-03-04T01:50:34;96252.56;;;-2.29;58.96
72636;BME280;60679;48.888;15.544;2023-03-04T01:53:01;96252.19;;;-2.35;58.76
72636;BME280;60679;48.888;15.544;2023-03-04T01:55:28;96245.66;;;-2.40;59.06
72636;BME280;60679;48.888;15.544;2023-03-04T01:57:54;96238.97;;;-2.44;59.03
72636;BME280;60679;48.888;15.544;2023-03-04T02:02:49;96241.06;;;-2.48;59.07
72636;BME280;60679;48.888;15.544;2023-03-04T02:05:15;96243.16;;;-2.51;59.11
72636;BME280;60679;48.888;15.544;2023-03-04T02:07:41;96233.50;;;-2.60;59.10
72636;BME280;60679;48.888;15.544;2023-03-04T02:10:08;96232.94;;;-2.64;58.93
72636;BME280;60679;48.888;15.544;2023-03-04T02:12:34;96237.53;;;-2.66;59.48
72636;BME280;60679;48.888;15.544;2023-03-04T02:14:59;96231.81;;;-2.71;59.30
72636;BME280;60679;48.888;15.544;2023-03-04T02:17:26;96229.34;;;-2.82;59.25
72636;BME280;60679;48.888;15.544;2023-03-04T02:19:58;96227.31;;;-2.88;59.44
72636;BME280;60679;48.888;15.544;2023-03-04T02:22:27;96225.47;;;-2.87;59.77
72636;BME280;60679;48.888;15.544;2023-03-04T02:25:02;96219.91;;;-2.84;59.41
72636;BME280;60679;48.888;15.544;2023-03-04T02:27:31;96211.31;;;-2.86;59.57
72636;BME280;60679;48.888;15.544;2023-03-04T02:29:57;96210.47;;;-2.87;59.50
72636;BME280;60679;48.888;15.544;2023-03-04T02:32:22;96205.34;;;-2.88;59.99
72636;BME280;60679;48.888;15.544;2023-03-04T02:34:49;96210.63;;;-2.88;59.53
72636;BME280;60679;48.888;15.544;2023-03-04T02:37:16;96205.34;;;-2.88;60.11
72636;BME280;60679;48.888;15.544;2023-03-04T02:39:43;96206.47;;;-2.91;60.02
72636;BME280;60679;48.888;15.544;2023-03-04T02:42:09;96191.59;;;-2.92;59.69
72636;BME280;60679;48.888;15.544;2023-03-04T02:44:40;96195.34;;;-2.95;60.03
72636;BME280;60679;48.888;15.544;2023-03-04T02:47:09;96197.72;;;-3.01;60.15
72636;BME280;60679;48.888;15.544;2023-03-04T02:49:36;96192.31;;;-3.00;60.47
72636;BME280;60679;48.888;15.544;2023-03-04T02:52:06;96189.94;;;-3.03;60.22
72636;BME280;60679;48.888;15.544;2023-03-04T02:54:32;96190.06;;;-3.04;60.38
72636;BME280;60679;48.888;15.544;2023-03-04T02:57:02;96184.91;;;-2.96;60.25
72636;BME280;60679;48.888;15.544;2023-03-04T02:59:28;96189.50;;;-2.88;60.56
72636;BME280;60679;48.888;15.544;2023-03-04T03:01:55;96182.41;;;-2.88;60.45
72636;BME280;60679;48.888;15.544;2023-03-04T03:04:21;96186.56;;;-2.85;60.31
72636;BME280;60679;48.888;15.544;2023-03-04T03:06:47;96179.78;;;-2.88;60.47
72636;BME280;60679;48.888;15.544;2023-03-04T03:09:12;96174.50;;;-2.88;60.78
72636;BME280;60679;48.888;15.544;2023-03-04T03:11:38;96170.16;;;-2.89;60.49
72636;BME280;60679;48.888;15.544;2023-03-04T03:14:03;96160.84;;;-2.93;60.57
72636;BME280;60679;48.888;15.544;2023-03-04T03:16:29;96164.63;;;-2.96;60.81
72636;BME280;60679;48.888;15.544;2023-03-04T03:18:55;96161.00;;;-2.95;60.90
72636;BME280;60679;48.888;15.544;2023-03-04T03:21:21;96162.81;;;-2.95;60.97
72636;BME280;60679;48.888;15.544;2023-03-04T03:23:46;96150.28;;;-2.93;60.81
72636;BME280;60679;48.888;15.544;2023-03-04T03:26:11;96152.13;;;-2.94;60.61
72636;BME280;60679;48.888;15.544;2023-03-04T03:28:37;96153.66;;;-2.91;60.73
72636;BME280;60679;48.888;15.544;2023-03-04T03:31:02;96148.38;;;-2.91;61.18
72636;BME280;60679;48.888;15.544;2023-03-04T03:33:28;96151.00;;;-2.91;60.92
72636;BME280;60679;48.888;15.544;2023-03-04T03:35:53;96155.72;;;-2.95;60.79
72636;BME280;60679;48.888;15.544;2023-03-04T03:38:19;96138.66;;;-3.00;61.19
72636;BME280;60679;48.888;15.544;2023-03-04T03:40:44;96140.91;;;-3.05;60.96
72636;BME280;60679;48.888;15.544;2023-03-04T03:43:10;96139.91;;;-3.04;61.21
72636;BME280;60679;48.888;15.544;2023-03-04T03:45:35;96130.72;;;-3.00;60.98
72636;BME280;60679;48.888;15.544;2023-03-04T03:48:00;96129.59;;;-2.98;61.58
72636;BME280;60679;48.888;15.544;2023-03-04T03:50:26;96125.44;;;-3.00;61.16
72636;BME280;60679;48.888;15.544;2023-03-04T03:52:53;96129.06;;;-3.01;61.40
72636;BME280;60679;48.888;15.544;2023-03-04T03:55:18;96121.28;;;-3.03;61.51
72636;BME280;60679;48.888;15.544;2023-03-04T03:57:43;96123.22;;;-3.05;61.63
72636;BME280;60679;48.888;15.544;2023-03-04T04:00:09;96125.34;;;-3.08;61.71
72636;BME280;60679;48.888;15.544;2023-03-04T04:02:35;96125.47;;;-3.10;61.62
72636;BME280;60679;48.888;15.544;2023-03-04T04:05:00;96124.63;;;-3.10;61.57
72636;BME280;60679;48.888;15.544;2023-03-04T04:07:26;96124.63;;;-3.10;61.70
72636;BME280;60679;48.888;15.544;2023-03-04T04:09:51;96129.09;;;-3.11;61.80
72636;BME280;60679;48.888;15.544;2023-03-04T04:12:18;96128.13;;;-3.10;61.77
72636;BME280;60679;48.888;15.544;2023-03-04T04:14:44;96123.13;;;-3.13;61.77
72636;BME280;60679;48.888;15.544;2023-03-04T04:17:09;96122.84;;;-3.10;62.13
72636;BME280;60679;48.888;15.544;2023-03-04T04:19:35;96121.44;;;-3.04;61.69
72636;BME280;60679;48.888;15.544;2023-03-04T04:22:02;96117.94;;;-3.05;62.08
72636;BME280;60679;48.888;15.544;2023-03-04T04:24:28;96113.09;;;-3.09;61.99
72636;BME280;60679;48.888;15.544;2023-03-04T04:26:53;96118.69;;;-3.12;62.26
72636;BME280;60679;48.888;15.544;2023-03-04T04:29:18;96124.91;;;-3.13;61.94
72636;BME280;60679;48.888;15.544;2023-03-04T04:31:44;96120.34;;;-3.11;61.97
72636;BME280;60679;48.888;15.544;2023-03-04T04:34:09;96127.53;;;-3.04;62.22
72636;BME280;60679;48.888;15.544;2023-03-04T04:36:35;96118.66;;;-3.03;62.18
72636;BME280;60679;48.888;15.544;2023-03-04T04:39:00;96115.84;;;-3.01;62.10
72636;BME280;60679;48.888;15.544;2023-03-04T04:41:41;96114.06;;;-3.01;62.11
72636;BME280;60679;48.888;15.544;2023-03-04T04:44:07;96124.34;;;-3.07;61.91
72636;BME280;60679;48.888;15.544;2023-03-04T04:46:33;96109.41;;;-3.16;62.03
72636;BME280;60679;48.888;15.544;2023-03-04T04:48:59;96117.63;;;-3.29;62.20
72636;BME280;60679;48.888;15.544;2023-03-04T04:51:25;96107.63;;;-3.35;62.53
72636;BME280;60679;48.888;15.544;2023-03-04T04:53:50;96114.75;;;-3.45;62.49
72636;BME280;60679;48.888;15.544;2023-03-04T04:56:18;96107.94;;;-3.47;62.16
72636;BME280;60679;48.888;15.544;2023-03-04T04:58:45;96104.34;;;-3.56;62.49
72636;BME280;60679;48.888;15.544;2023-03-04T05:01:10;96109.91;;;-3.69;62.42
72636;BME280;60679;48.888;15.544;2023-03-04T05:03:37;96111.84;;;-3.80;62.30
72636;BME280;60679;48.888;15.544;2023-03-04T05:06:04;96115.47;;;-3.91;62.55
72636;BME280;60679;48.888;15.544;2023-03-04T05:08:31;96102.16;;;-3.99;62.85
72636;BME280;60679;48.888;15.544;2023-03-04T05:10:56;96107.56;;;-4.00;62.75
72636;BME280;60679;48.888;15.544;2023-03-04T05:13:21;96100.91;;;-3.95;62.70
72636;BME280;60679;48.888;15.544;2023-03-04T05:15:50;96097.84;;;-3.71;62.78
72636;BME280;60679;48.888;15.544;2023-03-04T05:18:16;96095.16;;;-3.42;63.03
72636;BME280;60679;48.888;15.544;2023-03-04T05:20:41;96088.84;;;-3.22;62.62
72636;BME280;60679;48.888;15.544;2023-03-04T05:23:07;96095.06;;;-3.14;62.85
72636;BME280;60679;48.888;15.544;2023-03-04T05:25:32;96093.75;;;-3.00;62.63
72636;BME280;60679;48.888;15.544;2023-03-04T05:27:58;96088.56;;;-2.82;62.59
72636;BME280;60679;48.888;15.544;2023-03-04T05:30:25;96090.53;;;-2.67;63.12
72636;BME280;60679;48.888;15.544;2023-03-04T05:32:51;96089.59;;;-2.48;62.61
72636;BME280;60679;48.888;15.544;2023-03-04T05:35:16;96077.91;;;-2.28;62.80
72636;BME280;60679;48.888;15.544;2023-03-04T05:37:41;96072.47;;;-2.09;63.02
72636;BME280;60679;48.888;15.544;2023-03-04T05:40:07;96069.69;;;-1.90;62.67
72636;BME280;60679;48.888;15.544;2023-03-04T05:42:33;96063.88;;;-1.76;62.54
72636;BME280;60679;48.888;15.544;2023-03-04T05:44:58;96061.88;;;-1.56;62.48
72636;BME280;60679;48.888;15.544;2023-03-04T05:47:24;96053.44;;;-1.51;62.27
72636;BME280;60679;48.888;15.544;2023-03-04T05:49:49;96059.94;;;-1.46;62.60
72636;BME280;60679;48.888;15.544;2023-03-04T05:52:14;96063.78;;;-1.40;62.66
72636;BME280;60679;48.888;15.544;2023-03-04T05:54:40;96055.00;;;-1.41;62.66
72636;BME280;60679;48.888;15.544;2023-03-04T05:57:05;96054.88;;;-1.39;62.28
72636;BME280;60679;48.888;15.544;2023-03-04T05:59:30;96054.25;;;-1.33;62.56
72636;BME280;60679;48.888;15.544;2023-03-04T06:01:56;96052.31;;;-1.23;62.45
72636;BME280;60679;48.888;15.544;2023-03-04T06:04:21;96054.03;;;-1.14;62.12
72636;BME280;60679;48.888;15.544;2023-03-04T06:06:47;96040.97;;;-1.07;62.11
72636;BME280;60679;48.888;15.544;2023-03-04T06:09:13;96049.81;;;-0.99;62.26
72636;BME280;60679;48.888;15.544;2023-03-04T06:11:39;96046.00;;;-0.96;62.05
72636;BME280;60679;48.888;15.544;2023-03-04T06:14:04;96042.88;;;-0.92;62.17
72636;BME280;60679;48.888;15.544;2023-03-04T06:16:30;96051.50;;;-0.82;62.20
72636;BME280;60679;48.888;15.544;2023-03-04T06:18:56;96054.06;;;-0.64;62.17
72636;BME280;60679;48.888;15.544;2023-03-04T06:21:21;96060.25;;;-0.47;62.07
72636;BME280;60679;48.888;15.544;2023-03-04T06:23:47;96052.84;;;-0.28;61.91
72636;BME280;60679;48.888;15.544;2023-03-04T06:26:12;96057.69;;;-0.15;61.89
72636;BME280;60679;48.888;15.544;2023-03-04T06:28:40;96057.72;;;-0.07;61.78
72636;BME280;60679;48.888;15.544;2023-03-04T06:31:06;96060.53;;;-0.01;61.82
72636;BME280;60679;48.888;15.544;2023-03-04T06:33:32;96061.06;;;0.11;61.83
72636;BME280;60679;48.888;15.544;2023-03-04T06:35:58;96063.72;;;0.27;61.94
72636;BME280;60679;48.888;15.544;2023-03-04T06:38:24;96069.19;;;0.42;61.76
72636;BME280;60679;48.888;15.544;2023-03-04T06:40:49;96073.19;;;0.62;61.42
72636;BME280;60679;48.888;15.544;2023-03-04T06:43:15;96066.81;;;0.79;60.63
72636;BME280;60679;48.888;15.544;2023-03-04T06:45:40;96081.91;;;1.03;60.70
72636;BME280;60679;48.888;15.544;2023-03-04T06:48:06;96078.69;;;1.24;60.50
72636;BME280;60679;48.888;15.544;2023-03-04T06:50:31;96084.59;;;1.42;60.19
72636;BME280;60679;48.888;15.544;2023-03-04T06:52:57;96082.84;;;1.65;60.08
72636;BME280;60679;48.888;15.544;2023-03-04T06:55:23;96083.09;;;1.86;59.82
72636;BME280;60679;48.888;15.544;2023-03-04T06:57:49;96077.41;;;2.12;59.50
72636;BME280;60679;48.888;15.544;2023-03-04T07:00:14;96081.22;;;2.40;59.01
72636;BME280;60679;48.888;15.544;2023-03-04T07:02:40;96085.19;;;2.67;58.75
72636;BME280;60679;48.888;15.544;2023-03-04T07:05:06;96084.69;;;2.86;58.53
72636;BME280;60679;48.888;15.544;2023-03-04T07:07:32;96091.78;;;3.08;58.07
72636;BME280;60679;48.888;15.544;2023-03-04T07:09:57;96091.38;;;3.34;57.84
72636;BME280;60679;48.888;15.544;2023-03-04T07:12:23;96102.88;;;3.64;57.74
72636;BME280;60679;48.888;15.544;2023-03-04T07:14:48;96107.53;;;3.91;57.34
72636;BME280;60679;48.888;15.544;2023-03-04T07:17:14;96110.09;;;4.14;57.11
72636;BME280;60679;48.888;15.544;2023-03-04T07:19:39;96117.81;;;4.44;56.90
72636;BME280;60679;48.888;15.544;2023-03-04T07:22:06;96118.88;;;4.64;56.38
72636;BME280;60679;48.888;15.544;2023-03-04T07:24:31;96112.31;;;4.88;56.30
72636;BME280;60679;48.888;15.544;2023-03-04T07:26:57;96121.44;;;5.21;55.84
72636;BME280;60679;48.888;15.544;2023-03-04T07:29:22;96117.06;;;5.42;55.60
72636;BME280;60679;48.888;15.544;2023-03-04T07:31:47;96124.84;;;5.71;55.41
72636;BME280;60679;48.888;15.544;2023-03-04T07:34:14;96130.56;;;5.89;55.16
72636;BME280;60679;48.888;15.544;2023-03-04T07:36:40;96119.94;;;6.15;54.78
72636;BME280;60679;48.888;15.544;2023-03-04T07:39:06;96123.13;;;6.32;54.57
72636;BME280;60679;48.888;15.544;2023-03-04T07:41:31;96127.53;;;6.53;54.28
72636;BME280;60679;48.888;15.544;2023-03-04T07:44:00;96126.97;;;6.77;53.95
72636;BME280;60679;48.888;15.544;2023-03-04T07:46:26;96126.81;;;7.11;53.70
72636;BME280;60679;48.888;15.544;2023-03-04T07:48:51;96116.06;;;7.37;53.17
72636;BME280;60679;48.888;15.544;2023-03-04T07:51:19;96121.19;;;7.65;52.84
72636;BME280;60679;48.888;15.544;2023-03-04T07:53:47;96119.06;;;7.93;52.56
72636;BME280;60679;48.888;15.544;2023-03-04T07:56:17;96130.16;;;8.23;52.23
72636;BME280;60679;48.888;15.544;2023-03-04T07:58:43;96130.22;;;8.61;51.70
72636;BME280;60679;48.888;15.544;2023-03-04T08:01:11;96130.50;;;8.84;51.11
72636;BME280;60679;48.888;15.544;2023-03-04T08:03:36;96125.78;;;8.80;50.94
72636;BME280;60679;48.888;15.544;2023-03-04T08:06:04;96124.63;;;9.00;50.53
72636;BME280;60679;48.888;15.544;2023-03-04T08:08:29;96121.41;;;9.16;50.48
72636;BME280;60679;48.888;15.544;2023-03-04T08:10:55;96116.78;;;9.23;49.89
72636;BME280;60679;48.888;15.544;2023-03-04T08:13:20;96119.44;;;9.30;49.72
72636;BME280;60679;48.888;15.544;2023-03-04T08:15:46;96119.28;;;9.50;49.33
72636;BME280;60679;48.888;15.544;2023-03-04T08:18:12;96113.69;;;9.69;49.04
72636;BME280;60679;48.888;15.544;2023-03-04T08:20:41;96119.25;;;9.74;48.73
72636;BME280;60679;48.888;15.544;2023-03-04T08:23:07;96117.19;;;9.95;48.08
72636;BME280;60679;48.888;15.544;2023-03-04T08:25:33;96117.81;;;10.15;48.04
72636;BME280;60679;48.888;15.544;2023-03-04T08:27:58;96120.31;;;10.34;47.66
72636;BME280;60679;48.888;15.544;2023-03-04T08:30:23;96113.84;;;10.35;47.29
72636;BME280;60679;48.888;15.544;2023-03-04T08:32:49;96115.94;;;10.52;47.32
72636;BME280;60679;48.888;15.544;2023-03-04T08:35:14;96121.34;;;10.81;46.86
72636;BME280;60679;48.888;15.544;2023-03-04T08:37:39;96114.38;;;10.92;46.27
72636;BME280;60679;48.888;15.544;2023-03-04T08:40:05;96127.72;;;11.17;45.99
72636;BME280;60679;48.888;15.544;2023-03-04T08:42:31;96113.06;;;11.36;45.63
72636;BME280;60679;48.888;15.544;2023-03-04T08:44:56;96118.63;;;11.52;44.88
72636;BME280;60679;48.888;15.544;2023-03-04T08:47:21;96123.78;;;11.66;44.95
72636;BME280;60679;48.888;15.544;2023-03-04T08:49:47;96123.84;;;12.00;44.60
72636;BME280;60679;48.888;15.544;2023-03-04T08:52:12;96124.88;;;12.34;44.19
72636;BME280;60679;48.888;15.544;2023-03-04T08:54:37;96122.56;;;12.66;43.96
72636;BME280;60679;48.888;15.544;2023-03-04T08:57:03;96120.44;;;13.08;43.42
72636;BME280;60679;48.888;15.544;2023-03-04T08:59:28;96128.00;;;13.67;42.91
72636;BME280;60679;48.888;15.544;2023-03-04T09:01:54;96119.81;;;14.17;42.62
72636;BME280;60679;48.888;15.544;2023-03-04T09:04:20;96120.94;;;14.38;41.87
72636;BME280;60679;48.888;15.544;2023-03-04T09:06:45;96124.00;;;14.63;41.66
72636;BME280;60679;48.888;15.544;2023-03-04T09:09:10;96126.78;;;14.47;41.02
72636;BME280;60679;48.888;15.544;2023-03-04T09:11:36;96127.16;;;14.33;40.75
72636;BME280;60679;48.888;15.544;2023-03-04T09:14:02;96120.63;;;14.18;40.70
72636;BME280;60679;48.888;15.544;2023-03-04T09:16:27;96126.22;;;14.28;40.23
72636;BME280;60679;48.888;15.544;2023-03-04T09:18:52;96123.72;;;14.43;39.56
72636;BME280;60679;48.888;15.544;2023-03-04T09:21:18;96124.88;;;14.90;39.16
72636;BME280;60679;48.888;15.544;2023-03-04T09:23:43;96117.81;;;15.16;38.30
72636;BME280;60679;48.888;15.544;2023-03-04T09:26:23;96112.31;;;15.59;37.59
72636;BME280;60679;48.888;15.544;2023-03-04T09:28:56;96108.06;;;16.10;37.21
72636;BME280;60679;48.888;15.544;2023-03-04T09:31:22;96116.38;;;16.78;36.54
72636;BME280;60679;48.888;15.544;2023-03-04T09:33:48;96103.47;;;17.35;35.41
72636;BME280;60679;48.888;15.544;2023-03-04T09:36:14;96107.63;;;17.98;34.75
72636;BME280;60679;48.888;15.544;2023-03-04T09:38:40;96102.94;;;18.39;34.06
72636;BME280;60679;48.888;15.544;2023-03-04T09:41:08;96110.81;;;18.76;33.17
72636;BME280;60679;48.888;15.544;2023-03-04T09:43:36;96103.00;;;19.13;33.00
72636;BME280;60679;48.888;15.544;2023-03-04T09:46:05;96094.56;;;19.87;32.49
72636;BME280;60679;48.888;15.544;2023-03-04T09:48:45;96098.19;;;20.45;31.78
72636;BME280;60679;48.888;15.544;2023-03-04T09:56:48;96095.81;;;22.22;29.55
72636;BME280;60679;48.888;15.544;2023-03-04T09:59:39;96100.84;;;22.79;28.79
72636;BME280;60679;48.888;15.544;2023-03-04T10:02:31;96091.84;;;23.15;28.16
72636;BME280;60679;48.888;15.544;2023-03-04T10:05:02;96090.72;;;23.43;27.99
72636;BME280;60679;48.888;15.544;2023-03-04T10:07:36;96090.13;;;23.68;27.46
72636;BME280;60679;48.888;15.544;2023-03-04T10:10:13;96088.44;;;24.17;26.99
72636;BME280;60679;48.888;15.544;2023-03-04T10:12:42;96090.97;;;24.57;26.79
72636;BME280;60679;48.888;15.544;2023-03-04T10:15:22;96090.56;;;25.03;26.18
72636;BME280;60679;48.888;15.544;2023-03-04T10:17:55;96088.81;;;25.16;26.07
72636;BME280;60679;48.888;15.544;2023-03-04T10:20:27;96084.00;;;25.39;25.46
72636;BME280;60679;48.888;15.544;2023-03-04T10:23:14;96087.97;;;25.80;25.18
72636;BME280;60679;48.888;15.544;2023-03-04T10:25:44;96080.19;;;26.17;24.98
72636;BME280;60679;48.888;15.544;2023-03-04T10:28:22;96079.97;;;26.39;24.55
72636;BME280;60679;48.888;15.544;2023-03-04T10:31:03;96081.09;;;26.55;24.39
72636;BME280;60679;48.888;15.544;2023-03-04T10:33:35;96077.16;;;26.65;24.27
72636;BME280;60679;48.888;15.544;2023-03-04T10:36:05;96076.00;;;26.83;23.98
72636;BME280;60679;48.888;15.544;2023-03-04T10:38:40;96073.13;;;27.29;23.61
72636;BME280;60679;48.888;15.544;2023-03-04T10:41:23;96070.19;;;27.43;23.19
72636;BME280;60679;48.888;15.544;2023-03-04T10:44:02;96076.63;;;27.26;23.20
72636;BME280;60679;48.888;15.544;2023-03-04T10:49:03;96072.03;;;27.22;23.05
72636;BME280;60679;48.888;15.544;2023-03-04T10:51:29;96073.22;;;27.50;22.73
72636;BME280;60679;48.888;15.544;2023-03-04T10:54:06;96067.97;;;27.57;22.44
72636;BME280;60679;48.888;15.544;2023-03-04T10:56:39;96059.84;;;27.73;22.32
72636;BME280;60679;48.888;15.544;2023-03-04T11:02:16;96060.16;;;27.92;21.87
72636;BME280;60679;48.888;15.544;2023-03-04T11:04:49;96057.69;;;28.20;21.74
72636;BME280;60679;48.888;15.544;2023-03-04T11:07:15;96049.00;;;28.21;21.69
72636;BME280;60679;48.888;15.544;2023-03-04T11:09:43;96044.75;;;28.69;21.35
72636;BME280;60679;48.888;15.544;2023-03-04T11:12:12;96053.47;;;28.91;21.02
72636;BME280;60679;48.888;15.544;2023-03-04T11:14:46;96045.84;;;29.00;20.95
72636;BME280;60679;48.888;15.544;2023-03-04T11:19:53;96036.00;;;29.51;20.75
72636;BME280;60679;48.888;15.544;2023-03-04T11:22:21;96041.38;;;30.52;20.05
72636;BME280;60679;48.888;15.544;2023-03-04T11:24:55;96026.75;;;30.70;19.61
72636;BME280;60679;48.888;15.544;2023-03-04T11:30:18;96025.69;;;30.75;19.71
72636;BME280;60679;48.888;15.544;2023-03-04T11:32:48;96033.91;;;30.99;19.73
72636;BME280;60679;48.888;15.544;2023-03-04T11:35:26;96037.59;;;31.19;19.24
72636;BME280;60679;48.888;15.544;2023-03-04T11:38:15;96018.03;;;31.34;19.15
72636;BME280;60679;48.888;15.544;2023-03-04T11:40:53;96012.44;;;31.34;18.92
72636;BME280;60679;48.888;15.544;2023-03-04T11:43:48;96012.09;;;31.52;18.84
72636;BME280;60679;48.888;15.544;2023-03-04T11:46:44;96012.69;;;31.61;18.79
72636;BME280;60679;48.888;15.544;2023-03-04T11:54:55;96006.75;;;31.81;18.15
72636;BME280;60679;48.888;15.544;2023-03-04T11:57:33;95995.69;;;32.04;17.95
72636;BME280;60679;48.888;15.544;2023-03-04T12:00:18;95990.75;;;32.17;18.10
72636;BME280;60679;48.888;15.544;2023-03-04T12:16:51;95963.53;;;33.01;16.96
72636;BME280;60679;48.888;15.544;2023-03-04T12:21:58;95954.44;;;33.86;16.19
72636;BME280;60679;48.888;15.544;2023-03-04T12:30:40;95949.00;;;33.67;16.41
72636;BME280;60679;48.888;15.544;2023-03-04T12:35:45;95954.88;;;33.88;15.84
72636;BME280;60679;48.888;15.544;2023-03-04T12:52:24;95950.16;;;34.62;15.13
72636;BME280;60679;48.888;15.544;2023-03-04T12:54:59;95941.31;;;34.27;15.54
72636;BME280;60679;48.888;15.544;2023-03-04T12:57:30;95941.31;;;34.23;15.47
72636;BME280;60679;48.888;15.544;2023-03-04T13:25:39;95931.44;;;34.77;14.48
72636;BME280;60679;48.888;15.544;2023-03-04T13:28:34;95919.91;;;34.86;14.30
72636;BME280;60679;48.888;15.544;2023-03-04T13:36:02;95917.44;;;34.07;14.60
72636;BME280;60679;48.888;15.544;2023-03-04T13:41:31;95919.81;;;33.72;15.04
72636;BME280;60679;48.888;15.544;2023-03-04T13:44:33;95906.56;;;34.02;14.27
72636;BME280;60679;48.888;15.544;2023-03-04T13:47:13;95909.72;;;33.63;14.63
72636;BME280;60679;48.888;15.544;2023-03-04T13:49:42;95913.41;;;33.41;14.45
72636;BME280;60679;48.888;15.544;2023-03-04T13:55:35;95913.13;;;33.80;14.61
72636;BME280;60679;48.888;15.544;2023-03-04T13:58:17;95904.13;;;33.11;14.87
72636;BME280;60679;48.888;15.544;2023-03-04T14:00:50;95902.06;;;32.82;14.62
72636;BME280;60679;48.888;15.544;2023-03-04T14:03:28;95902.75;;;32.52;14.98
72636;BME280;60679;48.888;15.544;2023-03-04T14:06:23;95907.06;;;32.05;14.91
72636;BME280;60679;48.888;15.544;2023-03-04T14:08:50;95905.06;;;31.48;15.03
72636;BME280;60679;48.888;15.544;2023-03-04T14:11:23;95890.97;;;31.79;15.21
72636;BME280;60679;48.888;15.544;2023-03-04T14:13:52;95889.84;;;31.45;15.08
72636;BME280;60679;48.888;15.544;2023-03-04T14:16:20;95901.97;;;30.99;15.20
72636;BME280;60679;48.888;15.544;2023-03-04T14:18:55;95902.13;;;30.27;15.75
72636;BME280;60679;48.888;15.544;2023-03-04T14:21:21;95899.91;;;26.48;17.96
72636;BME280;60679;48.888;15.544;2023-03-04T14:23:59;95902.84;;;19.48;23.33
72636;BME280;60679;48.888;15.544;2023-03-04T14:26:25;95899.03;;;16.73;25.08
72636;BME280;60679;48.888;15.544;2023-03-04T14:28:51;95905.41;;;15.54;25.90
72636;BME280;60679;48.888;15.544;2023-03-04T14:31:26;95907.94;;;15.71;25.54
72636;BME280;60679;48.888;15.544;2023-03-04T14:33:56;95902.19;;;21.45;20.76
72636;BME280;60679;48.888;15.544;2023-03-04T14:36:28;95883.63;;;25.53;17.88
72636;BME280;60679;48.888;15.544;2023-03-04T14:38:56;95892.75;;;23.31;19.49